Time;durP1;ratioP1;P1;durP2;ratioP2;P2;SDS_P1;SDS_P2;PMS_P1;PMS_P2;Temp;Humidity;BMP_temperature;BMP_pressure;BME280_temperature;BME280_humidity;BME280_pressure;Samples;Min_cycle;Max_cycle;Signal;HPM_P1;HPM_P2
2021/11/14 00:00:10;;;;;;;;;;;;;;;6.46;100.00;95971.53;5035780;28;19932;-76
2021/11/14 00:02:35;;;;;;;;;;;;;;;6.49;100.00;95971.06;5034692;28;19933;-76
2021/11/14 00:05:01;;;;;;;;;;;;;;;6.48;100.00;95970.28;5034552;28;19926;-76
2021/11/14 00:07:27;;;;;;;;;;;;;;;6.44;100.00;95983.97;5034276;28;19925;-76
2021/11/14 00:09:53;;;;;;;;;;;;;;;6.44;100.00;95984.78;5034108;28;19928;-76
2021/11/14 00:12:18;;;;;;;;;;;;;;;6.49;100.00;95984.94;5033824;28;19925;-76
2021/11/14 00:14:43;;;;;;;;;;;;;;;6.42;100.00;95986.81;5037950;28;19932;-76
2021/11/14 00:17:09;;;;;;;;;;;;;;;6.42;100.00;95986.81;5053142;28;19948;-76
2021/11/14 00:19:37;;;;;;;;;;;;;;;6.45;100.00;95981.16;5037777;28;20016;-76
2021/11/14 00:22:02;;;;;;;;;;;;;;;6.52;100.00;95976.69;5038174;28;19932;-76
2021/11/14 00:24:29;;;;;;;;;;;;;;;6.46;100.00;95982.75;5039957;28;19929;-75
2021/11/14 00:26:57;;;;;;;;;;;;;;;6.40;100.00;95981.00;5041141;28;19929;-76
2021/11/14 00:29:23;;;;;;;;;;;;;;;6.37;100.00;95984.03;5038140;28;19925;-75
2021/11/14 00:31:51;;;;;;;;;;;;;;;6.32;100.00;95974.22;5052845;28;19948;-76
2021/11/14 00:34:16;;;;;;;;;;;;;;;6.39;100.00;95979.41;5046537;28;19925;-76
2021/11/14 00:36:43;;;;;;;;;;;;;;;6.39;100.00;95975.97;5055196;28;19936;-76
2021/11/14 00:39:10;;;;;;;;;;;;;;;6.40;100.00;95980.19;5038797;28;19968;-76
2021/11/14 00:41:37;;;;;;;;;;;;;;;6.36;100.00;95976.44;5038509;28;19925;-75
2021/11/14 00:44:03;;;;;;;;;;;;;;;6.40;100.00;95977.56;5037646;28;19925;-76
2021/11/14 00:46:28;;;;;;;;;;;;;;;6.39;100.00;95968.94;5053935;28;19936;-76
2021/11/14 00:48:53;;;;;;;;;;;;;;;6.36;100.00;95971.22;5039161;28;19932;-76
2021/11/14 00:51:25;;;;;;;;;;;;;;;6.37;100.00;95968.38;5038648;28;19994;-76
2021/11/14 00:53:53;;;;;;;;;;;;;;;6.38;100.00;95964.75;5037042;28;20416;-76
2021/11/14 00:56:18;;;;;;;;;;;;;;;6.34;100.00;95976.63;5038769;28;20040;-76
2021/11/14 00:58:45;;;;;;;;;;;;;;;6.35;100.00;95974.81;5044463;28;20382;-76
2021/11/14 01:01:11;;;;;;;;;;;;;;;6.33;100.00;95977.66;5054974;28;20027;-76
2021/11/14 01:03:36;;;;;;;;;;;;;;;6.34;100.00;95984.47;5055257;28;19983;-76
2021/11/14 01:06:01;;;;;;;;;;;;;;;6.23;100.00;95972.09;5040049;28;20336;-77
2021/11/14 01:08:28;;;;;;;;;;;;;;;6.28;100.00;95974.88;5038435;28;19925;-76
2021/11/14 01:10:56;;;;;;;;;;;;;;;6.26;100.00;95979.53;5053837;28;19925;-76
2021/11/14 01:13:22;;;;;;;;;;;;;;;6.26;100.00;95971.69;5059672;28;19932;-82
2021/11/14 01:15:49;;;;;;;;;;;;;;;6.27;100.00;95963.63;5061493;28;20053;-80
2021/11/14 01:18:16;;;;;;;;;;;;;;;6.33;100.00;95969.81;5068102;28;19928;-81
2021/11/14 01:20:42;;;;;;;;;;;;;;;6.25;100.00;95975.31;5080141;28;19935;-78
2021/11/14 01:23:10;;;;;;;;;;;;;;;6.30;100.00;95975.47;5078303;28;19936;-78
2021/11/14 01:25:36;;;;;;;;;;;;;;;6.33;100.00;95975.03;5079439;28;19924;-80
2021/11/14 01:28:03;;;;;;;;;;;;;;;6.31;100.00;95980.47;5088761;28;19929;-80
2021/11/14 01:30:30;;;;;;;;;;;;;;;6.36;100.00;95974.63;5088836;28;19932;-81
2021/11/14 01:32:59;;;;;;;;;;;;;;;6.39;100.00;95986.44;5087682;28;19983;-81
2021/11/14 01:35:25;;;;;;;;;;;;;;;6.37;100.00;95978.81;5086478;28;19925;-79
2021/11/14 01:37:51;;;;;;;;;;;;;;;6.30;100.00;95976.28;5085410;28;19946;-81
2021/11/14 01:40:18;;;;;;;;;;;;;;;6.35;100.00;95980.03;5088620;28;20000;-78
2021/11/14 01:42:44;;;;;;;;;;;;;;;6.33;100.00;95980.25;5087668;28;19928;-79
2021/11/14 01:45:10;;;;;;;;;;;;;;;6.33;100.00;95972.41;5093011;28;19919;-77
2021/11/14 01:47:35;;;;;;;;;;;;;;;6.40;100.00;95973.16;5090681;28;19951;-80
2021/11/14 01:50:03;;;;;;;;;;;;;;;6.44;100.00;95982.16;5087142;28;19928;-83
2021/11/14 01:52:32;;;;;;;;;;;;;;;6.47;100.00;95979.13;5087938;28;19928;-81
2021/11/14 01:54:57;;;;;;;;;;;;;;;6.49;100.00;95976.31;5089997;28;19988;-81
2021/11/14 01:57:23;;;;;;;;;;;;;;;6.48;100.00;95972.88;5089834;28;19936;-80
2021/11/14 01:59:49;;;;;;;;;;;;;;;6.42;100.00;95973.75;5087475;28;19929;-81
2021/11/14 02:02:15;;;;;;;;;;;;;;;6.35;100.00;95975.63;5086356;28;19998;-82
2021/11/14 02:04:41;;;;;;;;;;;;;;;6.37;100.00;95973.59;5085090;28;19924;-80
2021/11/14 02:07:09;;;;;;;;;;;;;;;6.42;100.00;95971.13;5076668;28;20400;-82
2021/11/14 02:09:34;;;;;;;;;;;;;;;6.41;100.00;95971.38;5066964;28;19978;-83
2021/11/14 02:12:02;;;;;;;;;;;;;;;6.40;100.00;95973.16;5064470;28;19936;-83
2021/11/14 02:14:27;;;;;;;;;;;;;;;6.40;100.00;95967.13;5064863;28;19924;-81
2021/11/14 02:16:55;;;;;;;;;;;;;;;6.19;100.00;95966.53;5064808;28;19932;-80
2021/11/14 02:19:23;;;;;;;;;;;;;;;6.30;100.00;95967.63;5066036;28;19956;-82
2021/11/14 02:21:51;;;;;;;;;;;;;;;6.23;100.00;95966.88;5066961;28;19951;-76
2021/11/14 02:24:18;;;;;;;;;;;;;;;6.17;100.00;95972.97;5060650;28;20020;-76
2021/11/14 02:26:44;;;;;;;;;;;;;;;6.12;100.00;95975.41;5058688;28;19925;-76
2021/11/14 02:29:09;;;;;;;;;;;;;;;6.05;100.00;95971.03;5060409;28;19963;-76
2021/11/14 02:31:34;;;;;;;;;;;;;;;5.88;100.00;95974.38;5061240;28;19971;-77
2021/11/14 02:34:00;;;;;;;;;;;;;;;5.86;100.00;95979.78;5061551;28;19950;-77
2021/11/14 02:36:25;;;;;;;;;;;;;;;5.80;100.00;95973.59;5062635;28;19948;-77
2021/11/14 02:38:52;;;;;;;;;;;;;;;5.77;100.00;95971.41;5064510;28;19996;-78
2021/11/14 02:41:19;;;;;;;;;;;;;;;5.80;100.00;95970.19;5063627;28;19925;-79
2021/11/14 02:43:46;;;;;;;;;;;;;;;5.79;100.00;95976.41;5064221;28;19931;-78
2021/11/14 02:46:11;;;;;;;;;;;;;;;5.77;100.00;95981.84;5064078;28;19924;-79
2021/11/14 02:48:37;;;;;;;;;;;;;;;5.76;100.00;95979.47;5062966;28;19925;-80
2021/11/14 02:51:07;;;;;;;;;;;;;;;5.79;100.00;95976.41;5060356;28;19925;-79
2021/11/14 02:53:32;;;;;;;;;;;;;;;5.80;100.00;95978.00;5060917;28;19913;-80
2021/11/14 02:55:59;;;;;;;;;;;;;;;5.89;100.00;95986.41;5061427;28;19928;-78
2021/11/14 02:58:28;;;;;;;;;;;;;;;5.87;100.00;95981.41;5062920;28;20347;-77
2021/11/14 03:01:00;;;;;;;;;;;;;;;5.95;100.00;95981.16;5060751;28;19924;-78
2021/11/14 03:03:28;;;;;;;;;;;;;;;5.85;100.00;95985.22;5058878;28;19925;-80
2021/11/14 03:05:53;;;;;;;;;;;;;;;5.76;100.00;95980.25;5061509;28;19925;-79
2021/11/14 03:08:21;;;;;;;;;;;;;;;5.80;100.00;95988.44;5061361;28;19985;-79
2021/11/14 03:10:47;;;;;;;;;;;;;;;5.77;100.00;95983.66;5060579;28;19925;-78
2021/11/14 03:13:17;;;;;;;;;;;;;;;5.91;100.00;95984.38;5065516;28;19931;-78
2021/11/14 03:15:43;;;;;;;;;;;;;;;5.96;100.00;95987.16;5065859;28;19925;-78
2021/11/14 03:18:09;;;;;;;;;;;;;;;5.99;100.00;95987.56;5063050;28;19960;-79
2021/11/14 03:20:35;;;;;;;;;;;;;;;5.99;100.00;95998.00;5063329;28;19925;-78
2021/11/14 03:23:01;;;;;;;;;;;;;;;5.87;100.00;95988.44;5063302;28;19925;-79
2021/11/14 03:25:27;;;;;;;;;;;;;;;5.95;100.00;95991.59;5062001;28;20296;-79
2021/11/14 03:27:53;;;;;;;;;;;;;;;5.87;100.00;95989.22;5062669;28;19952;-78
2021/11/14 03:30:21;;;;;;;;;;;;;;;5.94;100.00;95995.22;5062751;28;19928;-79
2021/11/14 03:32:46;;;;;;;;;;;;;;;5.91;100.00;96000.03;5061766;28;20035;-78
2021/11/14 03:35:12;;;;;;;;;;;;;;;6.02;100.00;95997.56;5062627;28;19924;-78
2021/11/14 03:37:40;;;;;;;;;;;;;;;5.93;100.00;96001.47;5062923;28;19976;-78
2021/11/14 03:40:06;;;;;;;;;;;;;;;5.92;100.00;95997.25;5060914;28;19932;-79
2021/11/14 03:42:32;;;;;;;;;;;;;;;5.80;100.00;96004.91;5061215;28;20484;-81
2021/11/14 03:44:57;;;;;;;;;;;;;;;5.86;100.00;95998.03;5060124;28;19925;-80
2021/11/14 03:47:24;;;;;;;;;;;;;;;5.90;100.00;95998.44;5064631;28;19968;-81
2021/11/14 03:49:49;;;;;;;;;;;;;;;5.89;100.00;96002.84;5065307;28;19969;-78
2021/11/14 03:52:15;;;;;;;;;;;;;;;5.96;100.00;95997.63;5067400;28;19983;-79
2021/11/14 03:54:42;;;;;;;;;;;;;;;5.89;100.00;96007.28;5066112;28;19996;-79
2021/11/14 03:57:08;;;;;;;;;;;;;;;5.83;100.00;96003.69;5067779;28;19925;-79
2021/11/14 03:59:36;;;;;;;;;;;;;;;5.89;100.00;96015.13;5069577;28;19935;-78
2021/11/14 04:02:06;;;;;;;;;;;;;;;5.97;100.00;96009.66;5080032;28;19913;-80
2021/11/14 04:04:33;;;;;;;;;;;;;;;5.95;100.00;96017.72;5075708;28;19925;-81
2021/11/14 04:06:58;;;;;;;;;;;;;;;5.91;100.00;96024.34;5082821;28;20015;-81
2021/11/14 04:09:23;;;;;;;;;;;;;;;5.96;100.00;96019.28;5095612;28;19916;-82
2021/11/14 04:11:49;;;;;;;;;;;;;;;5.86;100.00;96024.16;5094750;28;20090;-82
2021/11/14 04:14:14;;;;;;;;;;;;;;;5.79;100.00;96024.19;5094285;28;20016;-80
2021/11/14 04:16:40;;;;;;;;;;;;;;;5.81;100.00;96029.19;5094282;28;19936;-81
2021/11/14 04:19:05;;;;;;;;;;;;;;;5.72;100.00;96027.88;5094199;28;19925;-79
2021/11/14 04:21:32;;;;;;;;;;;;;;;5.80;100.00;96025.00;5096158;28;19982;-79
2021/11/14 04:23:58;;;;;;;;;;;;;;;5.97;100.00;96015.69;5095352;28;19925;-79
2021/11/14 04:26:23;;;;;;;;;;;;;;;5.85;100.00;96022.56;5095676;28;19992;-83
2021/11/14 04:28:49;;;;;;;;;;;;;;;5.86;100.00;96018.94;5098244;28;19929;-80
2021/11/14 04:31:14;;;;;;;;;;;;;;;5.83;100.00;96016.75;5098242;28;19991;-80
2021/11/14 04:33:40;;;;;;;;;;;;;;;5.88;100.00;96018.75;5095728;28;19924;-83
2021/11/14 04:36:05;;;;;;;;;;;;;;;5.86;100.00;96018.94;5094954;28;19948;-80
2021/11/14 04:38:32;;;;;;;;;;;;;;;5.86;100.00;96021.53;5093898;28;19996;-81
2021/11/14 04:40:58;;;;;;;;;;;;;;;5.83;100.00;96023.78;5094775;28;19950;-80
2021/11/14 04:43:24;;;;;;;;;;;;;;;5.85;100.00;96022.56;5093349;28;19909;-82
2021/11/14 04:45:50;;;;;;;;;;;;;;;5.87;100.00;96020.56;5096430;28;20345;-82
2021/11/14 04:48:16;;;;;;;;;;;;;;;5.97;100.00;96017.47;5089424;28;19925;-78
2021/11/14 04:50:41;;;;;;;;;;;;;;;5.91;100.00;96019.13;5084806;28;19928;-83
2021/11/14 04:53:07;;;;;;;;;;;;;;;5.95;100.00;96028.16;5080476;28;19931;-80
2021/11/14 04:55:34;;;;;;;;;;;;;;;5.85;100.00;96029.59;5086733;28;19933;-82
2021/11/14 04:58:00;;;;;;;;;;;;;;;5.92;100.00;96033.81;5087233;28;19959;-84
2021/11/14 05:00:28;;;;;;;;;;;;;;;5.94;100.00;96033.59;5083560;28;20380;-81
2021/11/14 05:02:56;;;;;;;;;;;;;;;5.91;100.00;96029.56;5083915;28;20003;-78
2021/11/14 05:05:22;;;;;;;;;;;;;;;5.87;100.00;96036.22;5088628;28;19936;-80
2021/11/14 05:07:47;;;;;;;;;;;;;;;5.89;100.00;96033.38;5087760;28;19924;-81
2021/11/14 05:10:13;;;;;;;;;;;;;;;5.93;100.00;96037.22;5082688;28;19925;-78
2021/11/14 05:12:40;;;;;;;;;;;;;;;5.95;100.00;96033.38;5080023;28;19936;-77
2021/11/14 05:15:07;;;;;;;;;;;;;;;5.84;100.00;96038.44;5085167;28;19931;-79
2021/11/14 05:17:32;;;;;;;;;;;;;;;5.87;100.00;96035.41;5093877;28;19946;-81
2021/11/14 05:19:58;;;;;;;;;;;;;;;5.89;100.00;96038.59;5094074;28;19956;-78
2021/11/14 05:22:23;;;;;;;;;;;;;;;5.92;100.00;96039.03;5085894;28;19932;-79
2021/11/14 05:24:49;;;;;;;;;;;;;;;5.89;100.00;96041.22;5089119;28;19924;-80
2021/11/14 05:27:14;;;;;;;;;;;;;;;5.95;100.00;96049.03;5093624;28;19925;-80
2021/11/14 05:29:41;;;;;;;;;;;;;;;5.90;100.00;96046.22;5091030;28;19999;-79
2021/11/14 05:32:09;;;;;;;;;;;;;;;5.88;100.00;96042.22;5088934;28;19931;-81
2021/11/14 05:34:34;;;;;;;;;;;;;;;5.86;100.00;96047.63;5087964;28;20023;-79
2021/11/14 05:37:03;;;;;;;;;;;;;;;5.86;100.00;96055.47;5077600;28;19913;-77
2021/11/14 05:39:31;;;;;;;;;;;;;;;5.88;100.00;96058.69;5075094;28;19952;-79
2021/11/14 05:41:56;;;;;;;;;;;;;;;5.96;100.00;96060.28;5072396;28;19935;-78
2021/11/14 05:44:21;;;;;;;;;;;;;;;5.87;100.00;96061.53;5071618;28;20361;-78
2021/11/14 05:46:49;;;;;;;;;;;;;;;5.92;100.00;96057.31;5070810;28;19956;-80
2021/11/14 05:49:14;;;;;;;;;;;;;;;5.90;100.00;96061.88;5072925;28;19932;-80
2021/11/14 05:51:40;;;;;;;;;;;;;;;5.89;100.00;96062.91;5073621;28;19953;-79
2021/11/14 05:54:06;;;;;;;;;;;;;;;5.86;100.00;96065.13;5073478;28;19935;-80
2021/11/14 05:56:31;;;;;;;;;;;;;;;5.86;100.00;96065.91;5072727;28;19928;-79
2021/11/14 06:01:50;;;;;;;;;;;;;;;5.96;100.00;96071.50;5052484;28;19925;-80
2021/11/14 06:06:48;;;;;;;;;;;;;;;6.05;100.00;96069.47;5069313;28;19931;-79
2021/11/14 06:09:13;;;;;;;;;;;;;;;6.03;100.00;96074.91;5064600;28;19928;-79
2021/11/14 06:11:39;;;;;;;;;;;;;;;6.15;100.00;96077.66;5060749;28;19975;-78
2021/11/14 06:14:04;;;;;;;;;;;;;;;6.17;100.00;96082.66;5060844;28;19932;-79
2021/11/14 06:16:30;;;;;;;;;;;;;;;6.20;100.00;96082.25;5059343;28;19963;-80
2021/11/14 06:18:56;;;;;;;;;;;;;;;6.18;100.00;96089.47;5060826;28;19931;-78
2021/11/14 06:21:23;;;;;;;;;;;;;;;6.16;100.00;96099.34;5065545;28;19948;-78
2021/11/14 06:23:49;;;;;;;;;;;;;;;6.12;100.00;96096.34;5063632;28;19925;-79
2021/11/14 06:26:14;;;;;;;;;;;;;;;6.19;100.00;96102.34;5059232;28;19947;-79
2021/11/14 06:28:39;;;;;;;;;;;;;;;6.07;100.00;96100.59;5060391;28;19929;-77
2021/11/14 06:31:05;;;;;;;;;;;;;;;6.16;100.00;96110.56;5058197;28;20027;-77
2021/11/14 06:33:30;;;;;;;;;;;;;;;6.14;100.00;96110.00;5057917;28;20415;-77
2021/11/14 06:35:56;;;;;;;;;;;;;;;6.10;100.00;96108.00;5063558;28;20003;-79
2021/11/14 06:38:22;;;;;;;;;;;;;;;6.12;100.00;96111.19;5059865;28;20355;-77
2021/11/14 06:40:48;;;;;;;;;;;;;;;6.18;100.00;96110.38;5060611;28;19940;-79
2021/11/14 06:43:13;;;;;;;;;;;;;;;6.22;100.00;96117.56;5059461;28;20270;-79
2021/11/14 06:45:38;;;;;;;;;;;;;;;6.26;100.00;96110.91;5058580;28;19960;-79
2021/11/14 06:48:04;;;;;;;;;;;;;;;6.30;100.00;96111.31;5062624;28;19925;-78
2021/11/14 06:50:29;;;;;;;;;;;;;;;6.39;100.00;96117.88;5067053;28;19929;-78
2021/11/14 06:52:55;;;;;;;;;;;;;;;6.38;100.00;96121.50;5065025;28;19964;-80
2021/11/14 06:55:21;;;;;;;;;;;;;;;6.32;100.00;96120.53;5060936;28;19939;-78
2021/11/14 06:57:47;;;;;;;;;;;;;;;6.30;100.00;96129.59;5059376;28;19924;-76
2021/11/14 07:00:14;;;;;;;;;;;;;;;6.22;100.00;96129.84;5055438;28;20102;-76
2021/11/14 07:02:42;;;;;;;;;;;;;;;6.39;100.00;96138.75;5061258;28;19935;-78
2021/11/14 07:05:08;;;;;;;;;;;;;;;6.34;100.00;96135.97;5070141;28;19936;-76
2021/11/14 07:07:36;;;;;;;;;;;;;;;6.43;100.00;96129.50;5068862;28;20357;-77
2021/11/14 07:10:05;;;;;;;;;;;;;;;6.42;100.00;96137.56;5061467;28;19925;-77
2021/11/14 07:12:32;;;;;;;;;;;;;;;6.37;100.00;96129.53;5062629;28;19925;-76
2021/11/14 07:14:57;;;;;;;;;;;;;;;6.42;100.00;96140.97;5065435;28;19939;-78
2021/11/14 07:17:25;;;;;;;;;;;;;;;6.37;100.00;96140.78;5068255;28;19924;-77
2021/11/14 07:19:50;;;;;;;;;;;;;;;6.44;100.00;96136.31;5065564;28;19931;-79
2021/11/14 07:22:16;;;;;;;;;;;;;;;6.39;100.00;96151.81;5059134;28;19925;-77
2021/11/14 07:24:41;;;;;;;;;;;;;;;6.31;100.00;96152.09;5059391;28;19935;-78
2021/11/14 07:27:09;;;;;;;;;;;;;;;6.26;100.00;96149.31;5061489;28;19916;-77
2021/11/14 07:29:36;;;;;;;;;;;;;;;6.27;100.00;96156.13;5063505;28;19958;-76
2021/11/14 07:32:01;;;;;;;;;;;;;;;6.21;100.00;96152.53;5075833;28;19947;-79
2021/11/14 07:34:26;;;;;;;;;;;;;;;6.18;100.00;96159.97;5080761;28;20350;-78
2021/11/14 07:36:52;;;;;;;;;;;;;;;6.12;100.00;96166.03;5075655;28;19943;-76
2021/11/14 07:39:19;;;;;;;;;;;;;;;6.09;100.00;96163.88;5067572;28;19925;-78
2021/11/14 07:41:45;;;;;;;;;;;;;;;6.01;100.00;96163.06;5060018;28;19925;-79
2021/11/14 07:44:13;;;;;;;;;;;;;;;6.03;100.00;96162.88;5062175;28;19932;-78
2021/11/14 07:46:39;;;;;;;;;;;;;;;6.11;100.00;96170.47;5070916;28;19948;-76
2021/11/14 07:49:05;;;;;;;;;;;;;;;6.08;100.00;96172.69;5079297;28;20226;-76
2021/11/14 07:51:30;;;;;;;;;;;;;;;6.16;100.00;96170.66;5080969;28;19947;-77
2021/11/14 07:53:59;;;;;;;;;;;;;;;6.10;100.00;96176.72;5075264;28;19928;-77
2021/11/14 07:56:24;;;;;;;;;;;;;;;6.11;100.00;96183.53;5076606;28;20016;-77
2021/11/14 07:58:50;;;;;;;;;;;;;;;6.13;100.00;96180.69;5080365;28;19956;-77
2021/11/14 08:01:15;;;;;;;;;;;;;;;6.09;100.00;96179.53;5079073;28;19924;-77
2021/11/14 08:03:42;;;;;;;;;;;;;;;6.22;100.00;96179.47;5075341;28;20385;-76
2021/11/14 08:06:07;;;;;;;;;;;;;;;6.32;100.00;96179.81;5057871;28;19932;-76
2021/11/14 08:08:33;;;;;;;;;;;;;;;6.35;100.00;96178.56;5058781;28;19925;-74
2021/11/14 08:10:58;;;;;;;;;;;;;;;6.22;100.00;96177.66;5056359;28;19947;-76
2021/11/14 08:13:24;;;;;;;;;;;;;;;6.32;100.00;96171.97;5057833;28;19966;-76
2021/11/14 08:15:50;;;;;;;;;;;;;;;6.52;100.00;96180.50;5058552;28;19959;-77
2021/11/14 08:18:17;;;;;;;;;;;;;;;6.53;100.00;96173.47;5056458;28;19924;-76
2021/11/14 08:20:44;;;;;;;;;;;;;;;6.55;100.00;96169.63;5054484;28;19935;-78
2021/11/14 08:23:09;;;;;;;;;;;;;;;6.67;100.00;96177.56;5055579;28;20003;-77
2021/11/14 08:25:35;;;;;;;;;;;;;;;6.75;100.00;96187.78;5062711;28;20381;-77
2021/11/14 08:28:01;;;;;;;;;;;;;;;6.84;100.00;96183.91;5076808;28;19974;-79
2021/11/14 08:30:29;;;;;;;;;;;;;;;6.77;100.00;96179.72;5075411;28;20217;-77
2021/11/14 08:32:55;;;;;;;;;;;;;;;6.84;100.00;96191.75;5081960;28;19924;-79
2021/11/14 08:35:21;;;;;;;;;;;;;;;6.90;100.00;96191.91;5073711;28;19936;-80
2021/11/14 08:37:50;;;;;;;;;;;;;;;6.88;100.00;96189.50;5065011;28;20410;-80
2021/11/14 08:40:19;;;;;;;;;;;;;;;6.92;100.00;96187.25;5063506;28;19925;-78
2021/11/14 08:42:44;;;;;;;;;;;;;;;6.94;100.00;96178.22;5060237;28;19935;-77
2021/11/14 08:45:10;;;;;;;;;;;;;;;6.99;100.00;96180.97;5060878;28;20015;-78
2021/11/14 08:47:35;;;;;;;;;;;;;;;6.92;100.00;96187.25;5060658;28;19932;-78
2021/11/14 08:50:01;;;;;;;;;;;;;;;6.89;100.00;96179.84;5063193;28;20020;-76
2021/11/14 08:52:26;;;;;;;;;;;;;;;6.77;100.00;96185.75;5062218;28;20463;-78
2021/11/14 08:54:53;;;;;;;;;;;;;;;6.80;100.00;96192.38;5059094;28;19964;-75
2021/11/14 08:57:19;;;;;;;;;;;;;;;6.76;100.00;96192.00;5062921;28;19928;-75
2021/11/14 08:59:47;;;;;;;;;;;;;;;6.75;100.00;96189.59;5069053;28;20327;-75
2021/11/14 09:02:13;;;;;;;;;;;;;;;6.88;100.00;96189.50;5069370;28;19925;-76
2021/11/14 09:04:39;;;;;;;;;;;;;;;6.73;100.00;96189.81;5064827;28;19986;-74
2021/11/14 09:07:05;;;;;;;;;;;;;;;6.72;100.00;96182.16;5074863;28;20494;-81
2021/11/14 09:09:30;;;;;;;;;;;;;;;6.67;100.00;96188.03;5073186;28;19990;-82
2021/11/14 09:11:57;;;;;;;;;;;;;;;6.69;100.00;96190.44;5071519;28;19924;-82
2021/11/14 09:14:23;;;;;;;;;;;;;;;6.63;100.00;96191.31;5064409;28;19929;-78
2021/11/14 09:16:51;;;;;;;;;;;;;;;6.71;100.00;96188.41;5069101;28;19935;-78
2021/11/14 09:19:16;;;;;;;;;;;;;;;6.68;100.00;96191.47;5071576;28;19925;-79
2021/11/14 09:21:42;;;;;;;;;;;;;;;6.68;100.00;96194.09;5070768;28;20430;-81
2021/11/14 09:24:09;;;;;;;;;;;;;;;6.76;100.00;96191.19;5080516;28;19925;-81
2021/11/14 09:26:35;;;;;;;;;;;;;;;6.77;100.00;96193.59;5071056;28;19924;-79
2021/11/14 09:29:02;;;;;;;;;;;;;;;6.90;100.00;96197.94;5061526;28;19947;-78
2021/11/14 09:31:28;;;;;;;;;;;;;;;6.91;100.00;96204.78;5060557;28;19992;-80
2021/11/14 09:33:54;;;;;;;;;;;;;;;6.80;100.00;96210.69;5067016;28;19932;-79
2021/11/14 09:36:22;;;;;;;;;;;;;;;6.68;100.00;96209.75;5066397;28;19925;-79
2021/11/14 09:38:51;;;;;;;;;;;;;;;6.69;100.00;96206.13;5066444;28;19954;-78
2021/11/14 09:41:18;;;;;;;;;;;;;;;6.67;100.00;96208.13;5062786;28;19971;-81
2021/11/14 09:43:43;;;;;;;;;;;;;;;6.75;100.00;96210.50;5063228;28;19967;-79
2021/11/14 09:46:10;;;;;;;;;;;;;;;6.79;100.00;96206.47;5059682;28;19925;-78
2021/11/14 09:48:36;;;;;;;;;;;;;;;6.84;100.00;96214.50;5061362;28;19925;-80
2021/11/14 09:51:01;;;;;;;;;;;;;;;6.72;100.00;96211.72;5060864;28;19952;-79
2021/11/14 09:53:28;;;;;;;;;;;;;;;6.79;100.00;96209.88;5061449;28;19935;-80
2021/11/14 09:55:53;;;;;;;;;;;;;;;6.84;100.00;96210.06;5062825;28;19951;-77
2021/11/14 09:58:21;;;;;;;;;;;;;;;6.97;100.00;96221.44;5065191;28;20312;-78
2021/11/14 10:00:50;;;;;;;;;;;;;;;6.89;100.00;96217.28;5083256;28;20023;-80
2021/11/14 10:03:17;;;;;;;;;;;;;;;6.94;100.00;96222.66;5089009;28;19988;-79
2021/11/14 10:05:43;;;;;;;;;;;;;;;7.07;100.00;96206.84;5097410;28;19920;-76
2021/11/14 10:08:10;;;;;;;;;;;;;;;7.04;100.00;96220.34;5090895;28;20019;-78
2021/11/14 10:10:37;;;;;;;;;;;;;;;6.95;100.00;96205.97;5086411;28;19947;-78
2021/11/14 10:13:10;;;;;;;;;;;;;;;6.92;100.00;96211.59;5089157;28;19925;-77
2021/11/14 10:15:36;;;;;;;;;;;;;;;6.86;100.00;96215.06;5092448;28;19932;-78
2021/11/14 10:18:06;;;;;;;;;;;;;;;7.03;100.00;96213.53;5092541;28;19924;-77
2021/11/14 10:20:36;;;;;;;;;;;;;;;7.00;100.00;96207.94;5085917;28;19925;-78
2021/11/14 10:23:05;;;;;;;;;;;;;;;6.92;100.00;96208.19;5075586;28;19978;-78
2021/11/14 10:25:30;;;;;;;;;;;;;;;6.86;100.00;96216.88;5071167;28;20035;-78
2021/11/14 10:28:01;;;;;;;;;;;;;;;6.87;100.00;96218.47;5072018;28;19950;-81
2021/11/14 10:30:27;;;;;;;;;;;;;;;6.89;100.00;96216.44;5063868;28;19963;-78
2021/11/14 10:32:52;;;;;;;;;;;;;;;6.95;100.00;96205.97;5065886;28;20409;-75
2021/11/14 10:35:18;;;;;;;;;;;;;;;6.99;100.00;96212.34;5070205;28;19925;-76
2021/11/14 10:37:45;;;;;;;;;;;;;;;6.94;100.00;96206.97;5063042;28;19912;-76
2021/11/14 10:40:11;;;;;;;;;;;;;;;7.07;100.00;96209.47;5063871;28;19939;-76
2021/11/14 10:42:37;;;;;;;;;;;;;;;7.02;100.00;96213.75;5062229;28;19940;-74
2021/11/14 10:45:04;;;;;;;;;;;;;;;6.98;100.00;96208.13;5066189;28;19948;-75
2021/11/14 10:47:30;;;;;;;;;;;;;;;6.90;100.00;96203.19;5065656;28;19943;-76
2021/11/14 10:49:56;;;;;;;;;;;;;;;6.98;100.00;96199.47;5059560;28;19925;-76
2021/11/14 10:52:22;;;;;;;;;;;;;;;7.08;100.00;96191.97;5067307;28;19999;-76
2021/11/14 10:54:53;;;;;;;;;;;;;;;6.96;100.00;96198.91;5059251;28;19925;-77
2021/11/14 10:57:18;;;;;;;;;;;;;;;7.06;100.00;96192.19;5054736;28;19932;-76
2021/11/14 10:59:50;;;;;;;;;;;;;;;6.97;100.00;96200.50;5056127;28;19909;-76
2021/11/14 11:02:16;;;;;;;;;;;;;;;6.77;100.00;96192.78;5056397;28;20015;-77
2021/11/14 11:04:42;;;;;;;;;;;;;;;7.04;100.00;96194.19;5056080;28;20273;-77
2021/11/14 11:07:09;;;;;;;;;;;;;;;6.97;100.00;96197.88;5054287;28;19948;-77
2021/11/14 11:09:36;;;;;;;;;;;;;;;6.89;100.00;96191.13;5055475;28;19925;-76
2021/11/14 11:12:14;;;;;;;;;;;;;;;7.16;100.00;96194.31;5054060;28;19936;-76
2021/11/14 11:14:50;;;;;;;;;;;;;;;7.14;100.00;96187.69;5055330;28;19925;-76
2021/11/14 11:17:15;;;;;;;;;;;;;;;7.10;100.00;96188.13;5055382;28;19924;-76
2021/11/14 11:19:41;;;;;;;;;;;;;;;7.04;100.00;96203.84;5054413;28;19947;-76
2021/11/14 11:22:06;;;;;;;;;;;;;;;7.05;100.00;96195.03;5054646;28;19991;-75
2021/11/14 11:24:31;;;;;;;;;;;;;;;6.88;100.00;96189.50;5054862;28;19931;-75
2021/11/14 11:26:58;;;;;;;;;;;;;;;6.92;100.00;96201.13;5055684;28;19963;-78
2021/11/14 11:29:27;;;;;;;;;;;;;;;7.01;100.00;96199.06;5055288;28;19925;-76
2021/11/14 11:31:53;;;;;;;;;;;;;;;6.93;100.00;96188.88;5053759;28;19925;-76
2021/11/14 11:34:19;;;;;;;;;;;;;;;6.91;100.00;96188.28;5054957;28;19925;-76
2021/11/14 11:36:45;;;;;;;;;;;;;;;7.03;100.00;96197.84;5053952;28;20273;-76
2021/11/14 11:39:13;;;;;;;;;;;;;;;7.15;100.00;96194.53;5056889;28;19942;-76
2021/11/14 11:41:40;;;;;;;;;;;;;;;7.04;100.00;96199.44;5053775;28;20431;-75
2021/11/14 11:44:07;;;;;;;;;;;;;;;7.12;100.00;96197.59;5054902;28;19948;-76
2021/11/14 11:46:35;;;;;;;;;;;;;;;7.29;100.00;96196.03;5053853;28;19929;-76
2021/11/14 11:49:03;;;;;;;;;;;;;;;7.40;100.00;96192.69;5054481;28;19944;-75
2021/11/14 11:51:29;;;;;;;;;;;;;;;7.14;100.00;96200.78;5055039;28;20293;-76
2021/11/14 11:53:55;;;;;;;;;;;;;;;7.12;100.00;96193.16;5055104;28;19973;-76
2021/11/14 11:56:20;;;;;;;;;;;;;;;7.14;100.00;96192.94;5052747;28;20234;-76
2021/11/14 11:58:47;;;;;;;;;;;;;;;7.17;100.00;96192.50;5055394;28;19981;-77
2021/11/14 12:01:24;;;;;;;;;;;;;;;7.39;100.00;96190.31;5057084;28;19936;-77
2021/11/14 12:03:51;;;;;;;;;;;;;;;7.21;100.00;96198.91;5056328;28;20408;-77
2021/11/14 12:06:17;;;;;;;;;;;;;;;7.21;100.00;96194.50;5054991;28;20324;-76
2021/11/14 12:08:44;;;;;;;;;;;;;;;7.21;100.00;96185.81;5055409;28;19932;-75
2021/11/14 12:11:10;;;;;;;;;;;;;;;7.52;100.00;96196.19;5059786;28;19925;-75
2021/11/14 12:13:39;;;;;;;;;;;;;;;7.56;100.00;96186.09;5063169;28;19970;-77
2021/11/14 12:16:04;;;;;;;;;;;;;;;7.69;100.00;96190.38;5058245;28;19925;-76
2021/11/14 12:18:37;;;;;;;;;;;;;;;7.77;99.15;96197.97;5059350;28;19925;-76
2021/11/14 12:21:11;;;;;;;;;;;;;;;7.77;99.98;96192.72;5063835;28;20368;-76
2021/11/14 12:23:37;;;;;;;;;;;;;;;7.85;99.72;96189.81;5060783;28;19925;-77
2021/11/14 12:26:05;;;;;;;;;;;;;;;7.81;99.49;96188.66;5062283;28;19997;-78
2021/11/14 12:28:34;;;;;;;;;;;;;;;7.76;99.44;96191.13;5067310;28;19991;-76
2021/11/14 12:31:07;;;;;;;;;;;;;;;7.95;99.18;96195.34;5078964;28;19924;-76
2021/11/14 12:33:35;;;;;;;;;;;;;;;7.82;98.13;96196.28;5070823;28;19925;-76
2021/11/14 12:36:09;;;;;;;;;;;;;;;7.59;99.00;96198.78;5061009;28;19924;-77
2021/11/14 12:38:39;;;;;;;;;;;;;;;7.36;100.00;96207.22;5065135;28;19925;-76
2021/11/14 12:41:06;;;;;;;;;;;;;;;7.52;99.28;96205.88;5058607;28;19924;-76
2021/11/14 12:43:35;;;;;;;;;;;;;;;7.52;99.98;96211.91;5057269;28;19964;-76
2021/11/14 12:46:08;;;;;;;;;;;;;;;7.33;99.85;96205.84;5058139;28;19963;-76
2021/11/14 12:48:36;;;;;;;;;;;;;;;7.43;100.00;96205.34;5058898;28;20296;-76